createdAt,value
2023-05-14T00:00:07.764Z,100.00
2023-05-14T00:02:37.673Z,100.00
2023-05-14T00:05:13.078Z,100.00
2023-05-14T00:07:45.571Z,100.00
2023-05-14T00:10:15.391Z,100.00
2023-05-14T00:12:45.226Z,100.00
2023-05-14T00:15:15.240Z,100.00
2023-05-14T00:17:45.425Z,100.00
2023-05-14T00:20:15.617Z,100.00
2023-05-14T00:22:48.050Z,100.00
2023-05-14T00:25:20.166Z,100.00
2023-05-14T00:27:49.989Z,100.00
2023-05-14T00:30:19.921Z,100.00
2023-05-14T00:32:49.793Z,100.00
2023-05-14T00:35:20.744Z,100.00
2023-05-14T00:37:53.203Z,100.00
2023-05-14T00:40:23.830Z,100.00
2023-05-14T00:42:53.904Z,100.00
2023-05-14T00:45:23.868Z,100.00
2023-05-14T00:47:53.866Z,100.00
2023-05-14T00:50:24.517Z,100.00
2023-05-14T00:52:57.211Z,100.00
2023-05-14T00:55:27.177Z,100.00
2023-05-14T00:57:59.299Z,100.00
2023-05-14T01:00:29.226Z,100.00
2023-05-14T01:03:01.628Z,100.00
2023-05-14T01:05:35.059Z,100.00
2023-05-14T01:08:16.286Z,100.00
2023-05-14T01:10:54.276Z,100.00
2023-05-14T01:13:30.032Z,100.00
2023-05-14T01:16:01.612Z,100.00
2023-05-14T01:18:33.161Z,100.00
2023-05-14T01:21:05.005Z,100.00
2023-05-14T01:23:37.478Z,100.00
2023-05-14T01:26:10.908Z,100.00
2023-05-14T01:28:41.419Z,100.00
2023-05-14T01:31:19.913Z,100.00
2023-05-14T01:33:51.599Z,100.00
2023-05-14T01:36:21.717Z,100.00
2023-05-14T01:38:54.932Z,100.00
2023-05-14T01:41:26.147Z,100.00
2023-05-14T01:43:56.258Z,100.00
2023-05-14T01:46:26.130Z,100.00
2023-05-14T01:48:55.945Z,100.00
2023-05-14T01:51:25.818Z,100.00
2023-05-14T01:53:58.258Z,100.00
2023-05-14T01:56:28.262Z,100.00
2023-05-14T01:58:58.617Z,100.00
2023-05-14T02:01:28.658Z,100.00
2023-05-14T02:04:02.453Z,100.00
2023-05-14T02:06:32.494Z,100.00
2023-05-14T02:09:08.695Z,100.00
2023-05-14T02:11:38.600Z,100.00
2023-05-14T02:14:08.551Z,100.00
2023-05-14T02:16:38.398Z,100.00
2023-05-14T02:19:08.436Z,100.00
2023-05-14T02:21:38.386Z,100.00
2023-05-14T02:24:11.039Z,100.00
2023-05-14T02:26:40.897Z,100.00
2023-05-14T02:29:11.007Z,100.00
2023-05-14T02:31:40.872Z,100.00
2023-05-14T02:34:10.722Z,100.00
2023-05-14T02:36:40.524Z,100.00
2023-05-14T02:39:13.012Z,100.00
2023-05-14T02:41:42.831Z,100.00
2023-05-14T02:44:12.681Z,100.00
2023-05-14T02:46:42.521Z,100.00
2023-05-14T02:49:12.419Z,100.00
2023-05-14T02:51:42.221Z,100.00
2023-05-14T02:54:16.589Z,100.00
2023-05-14T02:56:48.001Z,100.00
2023-05-14T02:59:17.841Z,100.00
2023-05-14T03:01:48.107Z,100.00
2023-05-14T03:04:21.371Z,100.00
2023-05-14T03:06:51.398Z,100.00
2023-05-14T03:09:23.806Z,100.00
2023-05-14T03:11:53.819Z,100.00
2023-05-14T03:14:23.641Z,100.00
2023-05-14T03:16:53.455Z,100.00
2023-05-14T03:19:23.323Z,100.00
2023-05-14T03:21:53.173Z,100.00
2023-05-14T03:24:25.592Z,100.00
2023-05-14T03:26:55.448Z,100.00
2023-05-14T03:29:25.246Z,100.00
2023-05-14T03:31:58.202Z,100.00
2023-05-14T03:34:28.104Z,100.00
2023-05-14T03:36:57.991Z,100.00
2023-05-14T03:39:30.466Z,100.00
2023-05-14T03:42:00.556Z,100.00
2023-05-14T03:44:30.366Z,100.00
2023-05-14T03:47:00.205Z,100.00
2023-05-14T03:49:30.091Z,100.00
2023-05-14T03:52:00.389Z,100.00
2023-05-14T03:54:32.921Z,100.00
2023-05-14T03:57:02.844Z,100.00
2023-05-14T03:59:32.956Z,100.00
2023-05-14T04:02:02.915Z,100.00
2023-05-14T04:04:32.897Z,100.00
2023-05-14T04:07:02.806Z,100.00
2023-05-14T04:09:35.308Z,100.00
2023-05-14T04:12:05.189Z,100.00
2023-05-14T04:14:35.026Z,100.00
2023-05-14T04:17:04.872Z,100.00
2023-05-14T04:19:34.723Z,100.00
2023-05-14T04:22:04.540Z,100.00
2023-05-14T04:24:37.772Z,100.00
2023-05-14T04:27:08.216Z,100.00
2023-05-14T04:29:38.025Z,100.00
2023-05-14T04:32:08.796Z,100.00
2023-05-14T04:34:39.483Z,100.00
2023-05-14T04:37:09.345Z,100.00
2023-05-14T04:39:41.919Z,100.00
2023-05-14T04:42:11.757Z,100.00
2023-05-14T04:44:43.176Z,100.00
2023-05-14T04:47:13.017Z,100.00
2023-05-14T04:49:43.582Z,100.00
2023-05-14T04:52:13.576Z,100.00
2023-05-14T04:54:46.110Z,100.00
2023-05-14T04:57:16.000Z,100.00
2023-05-14T04:59:45.876Z,100.00
2023-05-14T05:02:15.727Z,100.00
2023-05-14T05:04:45.692Z,100.00
2023-05-14T05:07:16.270Z,100.00
2023-05-14T05:09:48.718Z,100.00
2023-05-14T05:12:19.684Z,100.00
2023-05-14T05:14:49.543Z,100.00
2023-05-14T05:17:20.927Z,100.00
2023-05-14T05:19:50.759Z,100.00
2023-05-14T05:22:20.662Z,100.00
2023-05-14T05:24:53.208Z,100.00
2023-05-14T05:27:23.486Z,100.00
2023-05-14T05:29:53.420Z,100.00
2023-05-14T05:32:23.460Z,100.00
2023-05-14T05:34:55.027Z,100.00
2023-05-14T05:37:24.877Z,100.00
2023-05-14T05:39:57.322Z,100.00
2023-05-14T05:42:27.668Z,100.00
2023-05-14T05:44:57.767Z,100.00
2023-05-14T05:47:27.616Z,100.00
2023-05-14T05:49:57.544Z,100.00
2023-05-14T05:52:27.401Z,100.00
2023-05-14T05:55:00.604Z,100.00
2023-05-14T05:57:30.693Z,100.00
2023-05-14T06:00:01.218Z,100.00
2023-05-14T06:02:31.141Z,100.00
2023-05-14T06:05:03.665Z,100.00
2023-05-14T06:07:33.489Z,100.00
2023-05-14T06:10:06.609Z,100.00
2023-05-14T06:12:36.467Z,100.00
2023-05-14T06:15:06.748Z,100.00
2023-05-14T06:17:36.628Z,100.00
2023-05-14T06:20:08.180Z,100.00
2023-05-14T06:22:38.004Z,100.00
2023-05-14T06:25:11.706Z,100.00
2023-05-14T06:27:42.479Z,100.00
2023-05-14T06:30:13.741Z,100.00
2023-05-14T06:32:43.722Z,100.00
2023-05-14T06:35:13.734Z,100.00
2023-05-14T06:37:45.120Z,100.00
2023-05-14T06:40:18.535Z,100.00
2023-05-14T06:42:48.319Z,100.00
2023-05-14T06:45:18.326Z,100.00
2023-05-14T06:47:48.216Z,100.00
2023-05-14T06:50:18.180Z,100.00
2023-05-14T06:52:48.382Z,100.00
2023-05-14T06:55:21.025Z,100.00
2023-05-14T06:57:51.156Z,100.00
2023-05-14T07:00:23.226Z,100.00
2023-05-14T07:02:53.326Z,100.00
2023-05-14T07:05:27.737Z,100.00
2023-05-14T07:07:57.572Z,100.00
2023-05-14T07:10:31.138Z,100.00
2023-05-14T07:13:01.001Z,100.00
2023-05-14T07:15:31.077Z,100.00
2023-05-14T07:18:00.942Z,100.00
2023-05-14T07:20:30.842Z,100.00
2023-05-14T07:23:00.690Z,100.00
2023-05-14T07:25:33.135Z,100.00
2023-05-14T07:28:02.963Z,100.00
2023-05-14T07:30:32.795Z,100.00
2023-05-14T07:33:02.688Z,100.00
2023-05-14T07:35:32.572Z,100.00
2023-05-14T07:38:02.526Z,100.00
2023-05-14T07:40:35.003Z,100.00
2023-05-14T07:43:04.880Z,100.00
2023-05-14T07:45:37.907Z,100.00
2023-05-14T07:48:08.175Z,100.00
2023-05-14T07:50:38.261Z,100.00
2023-05-14T07:53:08.230Z,100.00
2023-05-14T07:55:40.690Z,100.00
2023-05-14T07:58:10.686Z,100.00
2023-05-14T08:00:40.465Z,100.00
2023-05-14T08:03:10.339Z,100.00
2023-05-14T08:05:40.449Z,100.00
2023-05-14T08:08:11.082Z,100.00
2023-05-14T08:10:43.592Z,100.00
2023-05-14T08:13:13.473Z,100.00
2023-05-14T08:15:43.273Z,100.00
2023-05-14T08:18:13.188Z,100.00
2023-05-14T08:20:43.047Z,100.00
2023-05-14T08:23:14.702Z,100.00
2023-05-14T08:25:52.493Z,100.00
2023-05-14T08:28:23.383Z,100.00
2023-05-14T08:30:57.670Z,100.00
2023-05-14T08:33:30.262Z,100.00
2023-05-14T08:36:00.755Z,100.00
2023-05-14T08:38:30.603Z,100.00
2023-05-14T08:41:03.651Z,100.00
2023-05-14T08:43:39.464Z,100.00
2023-05-14T08:46:10.268Z,100.00
2023-05-14T08:48:43.752Z,100.00
2023-05-14T08:51:13.818Z,100.00
2023-05-14T08:53:43.819Z,100.00
2023-05-14T08:56:17.848Z,100.00
2023-05-14T08:58:47.825Z,100.00
2023-05-14T09:01:17.755Z,100.00
2023-05-14T09:03:52.142Z,100.00
2023-05-14T09:06:22.497Z,100.00
2023-05-14T09:08:54.160Z,100.00
2023-05-14T09:11:26.835Z,100.00
2023-05-14T09:13:57.086Z,100.00
2023-05-14T09:16:29.173Z,100.00
2023-05-14T09:19:04.789Z,100.00
2023-05-14T09:21:34.949Z,100.00
2023-05-14T09:24:04.761Z,100.00
2023-05-14T09:26:38.321Z,100.00
2023-05-14T09:29:08.186Z,99.85
2023-05-14T09:31:38.032Z,99.64
2023-05-14T09:34:07.927Z,99.48
2023-05-14T09:36:38.415Z,99.47
2023-05-14T09:39:09.527Z,99.76
2023-05-14T09:41:41.970Z,99.38
2023-05-14T09:44:11.816Z,99.17
2023-05-14T09:46:41.685Z,98.85
2023-05-14T09:49:13.124Z,98.45
2023-05-14T09:51:43.009Z,97.98
2023-05-14T09:54:13.133Z,97.66
2023-05-14T09:56:46.488Z,97.32
2023-05-14T09:59:16.360Z,96.87
2023-05-14T10:01:46.886Z,96.60
2023-05-14T10:04:17.820Z,96.34
2023-05-14T10:06:54.211Z,96.42
2023-05-14T10:09:28.102Z,96.16
2023-05-14T10:12:03.931Z,95.95
2023-05-14T10:14:39.117Z,96.04
2023-05-14T10:17:18.380Z,96.12
2023-05-14T10:19:56.907Z,96.41
2023-05-14T10:22:30.506Z,96.50
2023-05-14T10:25:00.463Z,96.06
2023-05-14T10:27:33.065Z,95.34
2023-05-14T10:30:03.021Z,95.14
2023-05-14T10:32:38.110Z,94.92
2023-05-14T10:35:20.777Z,94.79
2023-05-14T10:37:53.746Z,94.92
2023-05-14T10:40:31.240Z,94.80
2023-05-14T10:43:05.685Z,95.00
2023-05-14T10:45:35.648Z,95.31
2023-05-14T10:48:05.656Z,95.64
2023-05-14T10:50:35.766Z,95.48
2023-05-14T10:53:06.208Z,95.63
2023-05-14T10:55:36.381Z,95.63
2023-05-14T10:58:09.376Z,95.52
2023-05-14T11:00:40.051Z,95.43
2023-05-14T11:03:10.782Z,95.32
2023-05-14T11:05:44.161Z,94.63
2023-05-14T11:08:15.866Z,94.50
2023-05-14T11:10:50.368Z,93.90
2023-05-14T11:13:23.280Z,93.50
2023-05-14T11:15:54.165Z,93.22
2023-05-14T11:18:33.262Z,92.82
2023-05-14T11:21:05.644Z,92.89
2023-05-14T11:23:35.617Z,92.76
2023-05-14T11:26:05.585Z,92.86
2023-05-14T11:28:38.863Z,92.57
2023-05-14T11:31:08.950Z,92.25
2023-05-14T11:33:39.015Z,92.19
2023-05-14T11:36:11.077Z,92.10
2023-05-14T11:38:51.706Z,92.46
2023-05-14T11:41:23.535Z,92.22
2023-05-14T11:43:58.411Z,92.07
2023-05-14T11:46:30.273Z,91.70
2023-05-14T11:49:00.155Z,91.64
2023-05-14T11:51:30.013Z,91.70
2023-05-14T11:54:00.051Z,91.75
2023-05-14T11:56:30.231Z,91.57
2023-05-14T11:59:02.836Z,91.47
2023-05-14T12:01:35.199Z,91.56
2023-05-14T12:04:06.970Z,91.13
2023-05-14T12:06:37.042Z,91.01
2023-05-14T12:09:09.124Z,91.21
2023-05-14T12:11:40.051Z,91.37
2023-05-14T12:14:19.282Z,91.75
2023-05-14T12:16:49.782Z,91.46
2023-05-14T12:19:23.782Z,91.43
2023-05-14T12:21:57.009Z,91.20
2023-05-14T12:24:28.780Z,91.29
2023-05-14T12:26:58.636Z,91.04
2023-05-14T12:29:31.297Z,90.98
2023-05-14T12:32:04.863Z,91.21
2023-05-14T12:34:35.958Z,91.39
2023-05-14T12:37:07.474Z,91.73
2023-05-14T12:39:38.174Z,91.84
2023-05-14T12:42:08.412Z,91.34
2023-05-14T12:44:43.467Z,91.54
2023-05-14T12:47:13.622Z,91.64
2023-05-14T12:49:45.054Z,91.80
2023-05-14T12:52:22.754Z,91.98
2023-05-14T12:54:55.856Z,91.89
2023-05-14T12:57:25.673Z,91.62
2023-05-14T12:59:58.487Z,91.99
2023-05-14T13:02:28.309Z,92.40
2023-05-14T13:04:58.156Z,92.23
2023-05-14T13:07:27.994Z,91.79
2023-05-14T13:09:57.801Z,91.80
2023-05-14T13:12:27.589Z,92.03
2023-05-14T13:15:00.056Z,92.43
2023-05-14T13:17:30.027Z,92.51
2023-05-14T13:20:11.276Z,92.80
2023-05-14T13:22:41.316Z,92.70
2023-05-14T13:25:12.327Z,92.33
2023-05-14T13:27:42.137Z,92.35
2023-05-14T13:30:15.247Z,92.54
2023-05-14T13:32:45.045Z,92.44
2023-05-14T13:35:15.598Z,92.63
2023-05-14T13:37:46.229Z,93.00
2023-05-14T13:40:19.200Z,93.03
2023-05-14T13:42:48.968Z,92.77
2023-05-14T13:45:21.626Z,92.48
2023-05-14T13:47:51.844Z,92.82
2023-05-14T13:50:23.206Z,93.17
2023-05-14T13:52:52.996Z,93.42
2023-05-14T13:55:23.161Z,93.16
2023-05-14T13:57:53.709Z,92.82
2023-05-14T14:00:28.946Z,92.63
2023-05-14T14:02:58.831Z,92.41
2023-05-14T14:05:31.973Z,92.36
2023-05-14T14:08:13.153Z,92.42
2023-05-14T14:10:52.455Z,91.85
2023-05-14T14:13:22.996Z,91.89
2023-05-14T14:15:55.634Z,92.23
2023-05-14T14:18:25.580Z,91.83
2023-05-14T14:20:55.503Z,91.77
2023-05-14T14:23:25.308Z,91.24
2023-05-14T14:25:55.131Z,91.43
2023-05-14T14:28:24.948Z,91.74
2023-05-14T14:30:59.732Z,91.91
2023-05-14T14:33:29.674Z,92.11
2023-05-14T14:35:59.496Z,92.73
2023-05-14T14:38:29.467Z,92.44
2023-05-14T14:41:00.665Z,92.38
2023-05-14T14:43:30.567Z,92.44
2023-05-14T14:46:05.591Z,92.45
2023-05-14T14:48:37.929Z,92.56
2023-05-14T14:51:08.769Z,92.53
2023-05-14T14:53:40.578Z,92.01
2023-05-14T14:56:13.662Z,92.08
2023-05-14T14:58:43.457Z,92.28
2023-05-14T15:01:16.131Z,92.62
2023-05-14T15:03:48.699Z,92.65
2023-05-14T15:06:18.511Z,92.44
2023-05-14T15:08:50.656Z,92.36
2023-05-14T15:11:20.686Z,92.15
2023-05-14T15:13:50.498Z,91.52
2023-05-14T15:16:22.889Z,91.33
2023-05-14T15:18:55.107Z,90.73
2023-05-14T15:21:25.008Z,90.24
2023-05-14T15:23:54.812Z,90.04
2023-05-14T15:26:26.497Z,90.01
2023-05-14T15:28:56.449Z,90.21
2023-05-14T15:31:28.958Z,90.01
2023-05-14T15:33:58.808Z,88.79
2023-05-14T15:36:28.788Z,88.04
2023-05-14T15:39:01.136Z,87.69
2023-05-14T15:41:31.497Z,87.28
2023-05-14T15:44:01.476Z,86.88
2023-05-14T15:46:34.176Z,87.22
2023-05-14T15:49:04.081Z,87.20
2023-05-14T15:51:33.942Z,87.62
2023-05-14T15:54:05.372Z,88.30
2023-05-14T15:56:35.237Z,88.68
2023-05-14T15:59:05.132Z,88.37
2023-05-14T16:01:37.566Z,88.55
2023-05-14T16:04:09.168Z,88.73
2023-05-14T16:06:44.394Z,89.45
2023-05-14T16:09:15.051Z,89.13
2023-05-14T16:11:45.264Z,89.18
2023-05-14T16:14:15.152Z,89.45
2023-05-14T16:16:48.469Z,89.59
2023-05-14T16:19:18.479Z,89.73
2023-05-14T16:21:48.421Z,90.22
2023-05-14T16:24:21.176Z,90.55
2023-05-14T16:26:51.749Z,91.02
2023-05-14T16:29:21.581Z,90.87
2023-05-14T16:31:54.150Z,91.38
2023-05-14T16:34:24.064Z,91.61
2023-05-14T16:36:54.695Z,92.17
2023-05-14T16:39:24.555Z,92.67
2023-05-14T16:41:54.369Z,93.14
2023-05-14T16:44:24.262Z,93.34
2023-05-14T16:46:56.918Z,93.42
2023-05-14T16:49:26.889Z,93.77
2023-05-14T16:51:56.834Z,94.13
2023-05-14T16:54:26.935Z,94.68
2023-05-14T16:56:56.862Z,94.55
2023-05-14T16:59:26.763Z,94.83
2023-05-14T17:01:59.802Z,95.15
2023-05-14T17:04:33.719Z,95.67
2023-05-14T17:07:10.187Z,96.02
2023-05-14T17:09:40.340Z,96.15
2023-05-14T17:12:13.073Z,96.40
2023-05-14T17:14:45.629Z,96.53
2023-05-14T17:17:18.093Z,96.51
2023-05-14T17:19:48.553Z,97.03
2023-05-14T17:22:18.445Z,97.31
2023-05-14T17:24:48.313Z,97.26
2023-05-14T17:27:21.272Z,97.50
2023-05-14T17:29:56.500Z,97.59
2023-05-14T17:32:43.278Z,97.93
2023-05-14T17:35:17.373Z,98.24
2023-05-14T17:37:48.992Z,98.89
2023-05-14T17:40:18.928Z,99.24
2023-05-14T17:42:48.904Z,99.17
2023-05-14T17:45:20.954Z,99.39
2023-05-14T17:47:53.655Z,99.22
2023-05-14T17:50:25.139Z,99.58
2023-05-14T17:52:56.722Z,99.64
2023-05-14T17:55:26.843Z,99.48
2023-05-14T18:00:44.086Z,99.43
2023-05-14T18:03:17.788Z,99.68
2023-05-14T18:05:48.630Z,99.64
2023-05-14T18:08:18.576Z,99.57
2023-05-14T18:11:56.818Z,99.86
2023-05-14T18:14:11.093Z,99.96
2023-05-14T18:16:41.584Z,100.00
2023-05-14T18:19:14.449Z,100.00
2023-05-14T18:21:48.765Z,100.00
2023-05-14T18:27:34.010Z,100.00
2023-05-14T18:30:55.250Z,100.00
2023-05-14T18:36:04.596Z,100.00
2023-05-14T18:38:36.061Z,100.00
2023-05-14T18:41:05.950Z,100.00
2023-05-14T18:43:45.948Z,100.00
2023-05-14T18:46:16.003Z,100.00
2023-05-14T18:48:51.196Z,100.00
2023-05-14T18:51:23.703Z,100.00
2023-05-14T18:53:53.552Z,100.00
2023-05-14T18:56:23.383Z,100.00
2023-05-14T18:58:54.419Z,100.00
2023-05-14T19:01:26.039Z,100.00
2023-05-14T19:03:56.657Z,100.00
2023-05-14T19:06:29.384Z,100.00
2023-05-14T19:09:00.825Z,100.00
2023-05-14T19:11:33.709Z,100.00
2023-05-14T19:14:03.558Z,100.00
2023-05-14T19:16:33.517Z,100.00
2023-05-14T19:19:06.628Z,100.00
2023-05-14T19:21:39.510Z,100.00
2023-05-14T19:24:11.622Z,100.00
2023-05-14T19:26:42.233Z,100.00
2023-05-14T19:29:12.121Z,100.00
2023-05-14T19:31:41.975Z,100.00
2023-05-14T19:34:11.872Z,100.00
2023-05-14T19:36:47.915Z,100.00
2023-05-14T19:39:19.353Z,100.00
2023-05-14T19:41:49.152Z,100.00
2023-05-14T19:44:18.965Z,100.00
2023-05-14T19:46:48.916Z,100.00
2023-05-14T19:49:18.773Z,100.00
2023-05-14T19:51:51.217Z,100.00
2023-05-14T19:54:21.041Z,100.00
2023-05-14T19:56:51.183Z,100.00
2023-05-14T19:59:21.102Z,100.00
2023-05-14T20:01:51.151Z,100.00
2023-05-14T20:04:20.945Z,100.00
2023-05-14T20:06:53.682Z,100.00
2023-05-14T20:09:23.555Z,100.00
2023-05-14T20:11:53.392Z,100.00
2023-05-14T20:14:23.174Z,100.00
2023-05-14T20:16:53.349Z,100.00
2023-05-14T20:19:23.809Z,100.00
2023-05-14T20:21:56.494Z,100.00
2023-05-14T20:24:26.337Z,100.00
2023-05-14T20:26:56.925Z,100.00
2023-05-14T20:29:26.856Z,100.00
2023-05-14T20:31:57.149Z,100.00
2023-05-14T20:34:26.975Z,100.00
2023-05-14T20:37:02.070Z,100.00
2023-05-14T20:39:32.544Z,100.00
2023-05-14T20:42:02.360Z,100.00
2023-05-14T20:44:32.224Z,100.00
2023-05-14T20:47:02.106Z,100.00
2023-05-14T20:49:31.986Z,100.00
2023-05-14T20:52:04.597Z,100.00
2023-05-14T20:54:36.329Z,100.00
2023-05-14T20:57:06.299Z,100.00
2023-05-14T20:59:36.209Z,100.00
2023-05-14T21:02:06.430Z,100.00
2023-05-14T21:04:37.061Z,100.00
2023-05-14T21:07:10.577Z,100.00
2023-05-14T21:09:40.592Z,100.00
2023-05-14T21:12:11.551Z,100.00
2023-05-14T21:14:42.295Z,100.00
2023-05-14T21:17:12.212Z,100.00
2023-05-14T21:19:42.170Z,100.00
2023-05-14T21:22:15.232Z,100.00
2023-05-14T21:24:45.229Z,100.00
2023-05-14T21:27:15.206Z,100.00
2023-05-14T21:29:45.176Z,100.00
2023-05-14T21:51:36.193Z,100.00
2023-05-14T21:54:06.130Z,100.00
2023-05-14T21:56:38.358Z,100.00
2023-05-14T21:59:08.352Z,100.00
2023-05-14T22:01:56.039Z,100.00
2023-05-14T22:04:32.262Z,100.00
2023-05-14T22:07:15.041Z,100.00
2023-05-14T22:09:44.981Z,100.00
2023-05-14T22:12:17.040Z,100.00
2023-05-14T22:14:49.906Z,100.00
2023-05-14T22:17:25.706Z,100.00
2023-05-14T22:19:55.619Z,100.00
2023-05-14T22:22:28.624Z,100.00
2023-05-14T22:25:10.775Z,100.00
2023-05-14T22:27:40.644Z,100.00
2023-05-14T22:30:13.187Z,100.00
2023-05-14T22:32:46.307Z,100.00
2023-05-14T22:35:16.254Z,100.00
2023-05-14T22:40:25.656Z,100.00
2023-05-14T22:43:00.927Z,100.00
2023-05-14T22:45:30.856Z,100.00
2023-05-14T22:48:00.806Z,100.00
2023-05-14T22:50:30.763Z,100.00
2023-05-14T22:53:00.588Z,100.00
2023-05-14T22:55:33.302Z,100.00
2023-05-14T22:58:06.548Z,100.00
2023-05-14T23:00:36.773Z,100.00
2023-05-14T23:03:06.977Z,100.00
2023-05-14T23:05:37.035Z,100.00
2023-05-14T23:08:07.368Z,100.00
2023-05-14T23:10:41.428Z,100.00
2023-05-14T23:13:13.510Z,100.00
2023-05-14T23:15:46.137Z,100.00
2023-05-14T23:18:16.161Z,100.00
2023-05-14T23:20:49.845Z,100.00
2023-05-14T23:23:19.787Z,100.00
2023-05-14T23:25:52.573Z,100.00
2023-05-14T23:28:22.420Z,100.00
2023-05-14T23:30:52.363Z,100.00
2023-05-14T23:33:22.247Z,100.00
2023-05-14T23:35:52.355Z,100.00
2023-05-14T23:38:22.274Z,100.00
2023-05-14T23:40:54.782Z,100.00
2023-05-14T23:43:24.647Z,100.00
2023-05-14T23:45:54.509Z,100.00
2023-05-14T23:48:24.413Z,100.00
2023-05-14T23:50:54.279Z,100.00
2023-05-14T23:53:24.898Z,100.00
2023-05-14T23:55:57.372Z,100.00
2023-05-14T23:58:27.326Z,100.00
